sensor_id;sensor_type;location;lat;lon;timestamp;P1;durP1;ratioP1;P2;durP2;ratioP2
42384;SDS011;28042;43.986;22.860;2023-06-22T00:00:46;10.90;;;8.95;;
42384;SDS011;28042;43.986;22.860;2023-06-22T00:03:12;9.82;;;8.75;;
42384;SDS011;28042;43.986;22.860;2023-06-22T00:05:37;11.98;;;8.98;;
42384;SDS011;28042;43.986;22.860;2023-06-22T00:08:03;11.20;;;9.27;;
42384;SDS011;28042;43.986;22.860;2023-06-22T00:10:32;9.63;;;8.48;;
42384;SDS011;28042;43.986;22.860;2023-06-22T00:12:58;11.57;;;9.00;;
42384;SDS011;28042;43.986;22.860;2023-06-22T00:15:23;11.20;;;8.98;;
42384;SDS011;28042;43.986;22.860;2023-06-22T00:17:49;15.10;;;8.98;;
42384;SDS011;28042;43.986;22.860;2023-06-22T00:20:16;11.57;;;9.43;;
42384;SDS011;28042;43.986;22.860;2023-06-22T00:22:43;9.95;;;7.97;;
42384;SDS011;28042;43.986;22.860;2023-06-22T00:25:09;13.00;;;8.95;;
42384;SDS011;28042;43.986;22.860;2023-06-22T00:27:35;10.38;;;8.70;;
42384;SDS011;28042;43.986;22.860;2023-06-22T00:30:02;10.10;;;8.30;;
42384;SDS011;28042;43.986;22.860;2023-06-22T00:32:28;14.50;;;9.50;;
42384;SDS011;28042;43.986;22.860;2023-06-22T00:34:53;17.02;;;8.85;;
42384;SDS011;28042;43.986;22.860;2023-06-22T00:37:19;12.82;;;9.35;;
42384;SDS011;28042;43.986;22.860;2023-06-22T00:39:44;9.45;;;8.13;;
42384;SDS011;28042;43.986;22.860;2023-06-22T00:42:10;10.20;;;8.93;;
42384;SDS011;28042;43.986;22.860;2023-06-22T00:44:35;12.77;;;8.88;;
42384;SDS011;28042;43.986;22.860;2023-06-22T00:47:01;10.13;;;8.77;;
42384;SDS011;28042;43.986;22.860;2023-06-22T00:49:28;13.77;;;8.43;;
42384;SDS011;28042;43.986;22.860;2023-06-22T00:51:54;13.50;;;9.23;;
42384;SDS011;28042;43.986;22.860;2023-06-22T00:54:21;15.73;;;9.77;;
42384;SDS011;28042;43.986;22.860;2023-06-22T00:56:58;12.38;;;10.35;;
42384;SDS011;28042;43.986;22.860;2023-06-22T00:59:24;10.63;;;9.57;;
42384;SDS011;28042;43.986;22.860;2023-06-22T01:01:51;12.63;;;10.18;;
42384;SDS011;28042;43.986;22.860;2023-06-22T01:04:16;11.80;;;10.07;;
42384;SDS011;28042;43.986;22.860;2023-06-22T01:06:47;12.82;;;10.25;;
42384;SDS011;28042;43.986;22.860;2023-06-22T01:09:26;11.93;;;9.93;;
42384;SDS011;28042;43.986;22.860;2023-06-22T01:11:57;12.63;;;10.60;;
42384;SDS011;28042;43.986;22.860;2023-06-22T01:14:37;12.23;;;10.07;;
42384;SDS011;28042;43.986;22.860;2023-06-22T01:17:08;12.13;;;10.93;;
42384;SDS011;28042;43.986;22.860;2023-06-22T01:19:44;12.38;;;10.98;;
42384;SDS011;28042;43.986;22.860;2023-06-22T01:22:20;14.73;;;11.38;;
42384;SDS011;28042;43.986;22.860;2023-06-22T01:30:06;16.92;;;11.60;;
42384;SDS011;28042;43.986;22.860;2023-06-22T01:32:36;16.60;;;13.50;;
42384;SDS011;28042;43.986;22.860;2023-06-22T01:35:04;13.68;;;11.75;;
42384;SDS011;28042;43.986;22.860;2023-06-22T01:37:32;12.75;;;11.43;;
42384;SDS011;28042;43.986;22.860;2023-06-22T01:39:59;16.08;;;12.55;;
42384;SDS011;28042;43.986;22.860;2023-06-22T01:42:26;14.82;;;12.98;;
42384;SDS011;28042;43.986;22.860;2023-06-22T01:44:53;19.30;;;14.63;;
42384;SDS011;28042;43.986;22.860;2023-06-22T01:47:19;14.98;;;13.25;;
42384;SDS011;28042;43.986;22.860;2023-06-22T01:49:47;15.63;;;13.23;;
42384;SDS011;28042;43.986;22.860;2023-06-22T01:52:13;17.83;;;12.73;;
42384;SDS011;28042;43.986;22.860;2023-06-22T01:54:39;15.43;;;12.55;;
42384;SDS011;28042;43.986;22.860;2023-06-22T01:57:05;17.10;;;12.85;;
42384;SDS011;28042;43.986;22.860;2023-06-22T01:59:32;14.77;;;11.10;;
42384;SDS011;28042;43.986;22.860;2023-06-22T02:02:04;11.32;;;10.20;;
42384;SDS011;28042;43.986;22.860;2023-06-22T02:04:43;14.15;;;10.45;;
42384;SDS011;28042;43.986;22.860;2023-06-22T02:07:13;16.10;;;11.03;;
42384;SDS011;28042;43.986;22.860;2023-06-22T02:09:42;11.77;;;9.82;;
42384;SDS011;28042;43.986;22.860;2023-06-22T02:12:13;11.90;;;10.10;;
42384;SDS011;28042;43.986;22.860;2023-06-22T02:14:43;12.60;;;10.40;;
42384;SDS011;28042;43.986;22.860;2023-06-22T02:17:11;12.65;;;10.73;;
42384;SDS011;28042;43.986;22.860;2023-06-22T02:19:37;11.85;;;10.65;;
42384;SDS011;28042;43.986;22.860;2023-06-22T02:22:04;13.48;;;11.10;;
42384;SDS011;28042;43.986;22.860;2023-06-22T02:24:30;16.33;;;10.77;;
42384;SDS011;28042;43.986;22.860;2023-06-22T02:27:00;14.57;;;10.90;;
42384;SDS011;28042;43.986;22.860;2023-06-22T02:29:27;13.93;;;11.85;;
42384;SDS011;28042;43.986;22.860;2023-06-22T02:31:53;14.65;;;11.57;;
42384;SDS011;28042;43.986;22.860;2023-06-22T02:34:19;15.65;;;12.25;;
42384;SDS011;28042;43.986;22.860;2023-06-22T02:36:46;15.10;;;11.18;;
42384;SDS011;28042;43.986;22.860;2023-06-22T02:39:22;17.75;;;12.35;;
42384;SDS011;28042;43.986;22.860;2023-06-22T02:41:49;15.77;;;12.18;;
42384;SDS011;28042;43.986;22.860;2023-06-22T02:44:16;14.85;;;12.00;;
42384;SDS011;28042;43.986;22.860;2023-06-22T02:46:42;17.98;;;12.10;;
42384;SDS011;28042;43.986;22.860;2023-06-22T02:49:08;19.80;;;12.07;;
42384;SDS011;28042;43.986;22.860;2023-06-22T02:51:34;16.67;;;12.38;;
42384;SDS011;28042;43.986;22.860;2023-06-22T02:53:59;16.10;;;11.32;;
42384;SDS011;28042;43.986;22.860;2023-06-22T02:56:25;17.73;;;12.05;;
42384;SDS011;28042;43.986;22.860;2023-06-22T02:58:51;16.92;;;11.63;;
42384;SDS011;28042;43.986;22.860;2023-06-22T03:01:17;12.00;;;10.80;;
42384;SDS011;28042;43.986;22.860;2023-06-22T03:03:48;14.32;;;11.82;;
42384;SDS011;28042;43.986;22.860;2023-06-22T03:06:13;14.25;;;11.30;;
42384;SDS011;28042;43.986;22.860;2023-06-22T03:08:39;14.50;;;12.07;;
42384;SDS011;28042;43.986;22.860;2023-06-22T03:11:06;16.13;;;13.20;;
42384;SDS011;28042;43.986;22.860;2023-06-22T03:13:32;16.90;;;12.82;;
42384;SDS011;28042;43.986;22.860;2023-06-22T03:15:58;18.77;;;12.48;;
42384;SDS011;28042;43.986;22.860;2023-06-22T03:18:24;20.95;;;13.43;;
42384;SDS011;28042;43.986;22.860;2023-06-22T03:20:49;18.02;;;13.60;;
42384;SDS011;28042;43.986;22.860;2023-06-22T03:23:14;15.18;;;13.57;;
42384;SDS011;28042;43.986;22.860;2023-06-22T03:25:40;19.20;;;14.60;;
42384;SDS011;28042;43.986;22.860;2023-06-22T03:28:07;18.63;;;14.13;;
42384;SDS011;28042;43.986;22.860;2023-06-22T03:30:32;25.58;;;13.93;;
42384;SDS011;28042;43.986;22.860;2023-06-22T03:32:57;18.48;;;13.68;;
42384;SDS011;28042;43.986;22.860;2023-06-22T03:35:23;18.40;;;12.88;;
42384;SDS011;28042;43.986;22.860;2023-06-22T03:37:48;21.63;;;11.43;;
42384;SDS011;28042;43.986;22.860;2023-06-22T03:40:14;15.00;;;12.00;;
42384;SDS011;28042;43.986;22.860;2023-06-22T03:42:39;24.60;;;12.13;;
42384;SDS011;28042;43.986;22.860;2023-06-22T03:45:05;24.00;;;12.68;;
42384;SDS011;28042;43.986;22.860;2023-06-22T03:47:31;22.08;;;12.02;;
42384;SDS011;28042;43.986;22.860;2023-06-22T03:49:57;19.58;;;11.48;;
42384;SDS011;28042;43.986;22.860;2023-06-22T03:52:23;18.50;;;11.70;;
42384;SDS011;28042;43.986;22.860;2023-06-22T03:54:48;29.15;;;12.00;;
42384;SDS011;28042;43.986;22.860;2023-06-22T03:57:14;20.20;;;12.32;;
42384;SDS011;28042;43.986;22.860;2023-06-22T03:59:39;21.08;;;12.68;;
42384;SDS011;28042;43.986;22.860;2023-06-22T04:02:05;21.17;;;13.70;;
42384;SDS011;28042;43.986;22.860;2023-06-22T04:04:30;21.60;;;13.07;;
42384;SDS011;28042;43.986;22.860;2023-06-22T04:06:56;19.33;;;12.85;;
42384;SDS011;28042;43.986;22.860;2023-06-22T04:09:21;19.08;;;12.77;;
42384;SDS011;28042;43.986;22.860;2023-06-22T04:11:47;28.52;;;13.05;;
42384;SDS011;28042;43.986;22.860;2023-06-22T04:14:12;18.85;;;11.98;;
42384;SDS011;28042;43.986;22.860;2023-06-22T04:16:38;16.75;;;11.15;;
42384;SDS011;28042;43.986;22.860;2023-06-22T04:19:03;14.20;;;11.30;;
42384;SDS011;28042;43.986;22.860;2023-06-22T04:21:29;15.13;;;11.00;;
42384;SDS011;28042;43.986;22.860;2023-06-22T04:23:54;14.65;;;11.90;;
42384;SDS011;28042;43.986;22.860;2023-06-22T04:26:20;16.35;;;12.18;;
42384;SDS011;28042;43.986;22.860;2023-06-22T04:28:48;23.67;;;12.82;;
42384;SDS011;28042;43.986;22.860;2023-06-22T04:31:20;24.05;;;12.38;;
42384;SDS011;28042;43.986;22.860;2023-06-22T04:33:46;14.43;;;11.98;;
42384;SDS011;28042;43.986;22.860;2023-06-22T04:36:12;15.65;;;12.68;;
42384;SDS011;28042;43.986;22.860;2023-06-22T04:38:38;16.42;;;12.32;;
42384;SDS011;28042;43.986;22.860;2023-06-22T04:41:04;17.38;;;13.05;;
42384;SDS011;28042;43.986;22.860;2023-06-22T04:43:30;15.32;;;12.65;;
42384;SDS011;28042;43.986;22.860;2023-06-22T04:45:56;15.95;;;13.07;;
42384;SDS011;28042;43.986;22.860;2023-06-22T04:48:28;17.90;;;12.93;;
42384;SDS011;28042;43.986;22.860;2023-06-22T04:50:57;24.55;;;13.38;;
42384;SDS011;28042;43.986;22.860;2023-06-22T04:53:30;24.48;;;13.40;;
42384;SDS011;28042;43.986;22.860;2023-06-22T04:55:56;19.92;;;13.18;;
42384;SDS011;28042;43.986;22.860;2023-06-22T04:58:22;23.95;;;13.40;;
42384;SDS011;28042;43.986;22.860;2023-06-22T05:00:47;19.83;;;13.15;;
42384;SDS011;28042;43.986;22.860;2023-06-22T05:03:16;19.75;;;12.73;;
42384;SDS011;28042;43.986;22.860;2023-06-22T05:05:43;35.13;;;15.75;;
42384;SDS011;28042;43.986;22.860;2023-06-22T05:08:09;26.08;;;15.35;;
42384;SDS011;28042;43.986;22.860;2023-06-22T05:10:34;23.73;;;14.93;;
42384;SDS011;28042;43.986;22.860;2023-06-22T05:13:00;20.00;;;17.20;;
42384;SDS011;28042;43.986;22.860;2023-06-22T05:15:25;51.42;;;28.85;;
42384;SDS011;28042;43.986;22.860;2023-06-22T05:17:55;102.97;;;93.05;;
42384;SDS011;28042;43.986;22.860;2023-06-22T05:20:21;119.63;;;108.30;;
42384;SDS011;28042;43.986;22.860;2023-06-22T05:22:47;127.35;;;115.10;;
42384;SDS011;28042;43.986;22.860;2023-06-22T05:25:12;122.43;;;110.47;;
42384;SDS011;28042;43.986;22.860;2023-06-22T05:27:38;70.43;;;63.78;;
42384;SDS011;28042;43.986;22.860;2023-06-22T05:30:05;118.88;;;106.53;;
42384;SDS011;28042;43.986;22.860;2023-06-22T05:32:34;111.35;;;99.95;;
42384;SDS011;28042;43.986;22.860;2023-06-22T05:35:03;102.38;;;92.57;;
42384;SDS011;28042;43.986;22.860;2023-06-22T05:37:29;65.95;;;59.13;;
42384;SDS011;28042;43.986;22.860;2023-06-22T05:39:55;57.75;;;52.03;;
42384;SDS011;28042;43.986;22.860;2023-06-22T05:42:22;53.25;;;47.60;;
42384;SDS011;28042;43.986;22.860;2023-06-22T05:44:47;37.00;;;33.05;;
42384;SDS011;28042;43.986;22.860;2023-06-22T05:47:13;26.83;;;24.13;;
42384;SDS011;28042;43.986;22.860;2023-06-22T05:49:38;26.45;;;20.65;;
42384;SDS011;28042;43.986;22.860;2023-06-22T05:52:04;24.95;;;19.52;;
42384;SDS011;28042;43.986;22.860;2023-06-22T05:54:29;18.55;;;15.00;;
42384;SDS011;28042;43.986;22.860;2023-06-22T05:56:55;58.75;;;53.03;;
42384;SDS011;28042;43.986;22.860;2023-06-22T05:59:21;23.90;;;16.58;;
42384;SDS011;28042;43.986;22.860;2023-06-22T06:01:47;22.17;;;19.88;;
42384;SDS011;28042;43.986;22.860;2023-06-22T06:04:18;22.17;;;13.98;;
42384;SDS011;28042;43.986;22.860;2023-06-22T06:06:44;25.42;;;15.45;;
42384;SDS011;28042;43.986;22.860;2023-06-22T06:09:12;29.40;;;14.25;;
42384;SDS011;28042;43.986;22.860;2023-06-22T06:11:38;28.25;;;13.40;;
42384;SDS011;28042;43.986;22.860;2023-06-22T06:14:04;14.85;;;11.40;;
42384;SDS011;28042;43.986;22.860;2023-06-22T06:16:29;16.70;;;13.30;;
42384;SDS011;28042;43.986;22.860;2023-06-22T06:18:55;13.95;;;12.52;;
42384;SDS011;28042;43.986;22.860;2023-06-22T06:21:21;18.38;;;12.45;;
42384;SDS011;28042;43.986;22.860;2023-06-22T06:23:47;18.23;;;12.38;;
42384;SDS011;28042;43.986;22.860;2023-06-22T06:26:13;13.43;;;12.02;;
42384;SDS011;28042;43.986;22.860;2023-06-22T06:28:41;16.17;;;11.10;;
42384;SDS011;28042;43.986;22.860;2023-06-22T06:31:07;13.32;;;11.07;;
42384;SDS011;28042;43.986;22.860;2023-06-22T06:33:33;13.38;;;11.02;;
42384;SDS011;28042;43.986;22.860;2023-06-22T06:35:59;14.65;;;11.70;;
42384;SDS011;28042;43.986;22.860;2023-06-22T06:38:27;12.32;;;10.32;;
42384;SDS011;28042;43.986;22.860;2023-06-22T06:40:53;12.82;;;11.23;;
42384;SDS011;28042;43.986;22.860;2023-06-22T06:43:19;11.90;;;10.52;;
42384;SDS011;28042;43.986;22.860;2023-06-22T06:45:44;12.68;;;11.13;;
42384;SDS011;28042;43.986;22.860;2023-06-22T06:48:10;16.33;;;11.60;;
42384;SDS011;28042;43.986;22.860;2023-06-22T06:50:35;14.80;;;11.02;;
42384;SDS011;28042;43.986;22.860;2023-06-22T06:53:01;15.57;;;10.80;;
42384;SDS011;28042;43.986;22.860;2023-06-22T06:55:26;17.13;;;10.90;;
42384;SDS011;28042;43.986;22.860;2023-06-22T06:57:57;14.80;;;11.95;;
42384;SDS011;28042;43.986;22.860;2023-06-22T07:00:24;28.98;;;11.30;;
42384;SDS011;28042;43.986;22.860;2023-06-22T07:02:50;14.65;;;11.63;;
42384;SDS011;28042;43.986;22.860;2023-06-22T07:05:16;13.90;;;12.32;;
42384;SDS011;28042;43.986;22.860;2023-06-22T07:07:41;18.98;;;12.10;;
42384;SDS011;28042;43.986;22.860;2023-06-22T07:10:07;15.85;;;11.30;;
42384;SDS011;28042;43.986;22.860;2023-06-22T07:12:33;15.73;;;11.40;;
42384;SDS011;28042;43.986;22.860;2023-06-22T07:15:03;13.38;;;11.52;;
42384;SDS011;28042;43.986;22.860;2023-06-22T07:17:36;13.75;;;11.90;;
42384;SDS011;28042;43.986;22.860;2023-06-22T07:20:02;13.50;;;12.00;;
42384;SDS011;28042;43.986;22.860;2023-06-22T07:22:33;12.50;;;11.05;;
42384;SDS011;28042;43.986;22.860;2023-06-22T07:24:59;12.40;;;11.10;;
42384;SDS011;28042;43.986;22.860;2023-06-22T07:27:24;16.52;;;12.63;;
42384;SDS011;28042;43.986;22.860;2023-06-22T07:29:50;14.23;;;11.13;;
42384;SDS011;28042;43.986;22.860;2023-06-22T07:32:15;15.68;;;11.32;;
42384;SDS011;28042;43.986;22.860;2023-06-22T07:34:41;16.83;;;11.50;;
42384;SDS011;28042;43.986;22.860;2023-06-22T07:37:06;19.10;;;11.60;;
42384;SDS011;28042;43.986;22.860;2023-06-22T07:39:32;13.90;;;10.57;;
42384;SDS011;28042;43.986;22.860;2023-06-22T07:41:57;14.15;;;11.20;;
42384;SDS011;28042;43.986;22.860;2023-06-22T07:44:23;17.00;;;10.85;;
42384;SDS011;28042;43.986;22.860;2023-06-22T07:46:48;14.63;;;11.45;;
42384;SDS011;28042;43.986;22.860;2023-06-22T07:49:14;12.32;;;11.02;;
42384;SDS011;28042;43.986;22.860;2023-06-22T07:51:40;12.80;;;10.73;;
42384;SDS011;28042;43.986;22.860;2023-06-22T07:54:05;14.25;;;11.00;;
42384;SDS011;28042;43.986;22.860;2023-06-22T07:56:31;21.90;;;12.25;;
42384;SDS011;28042;43.986;22.860;2023-06-22T07:58:58;12.60;;;9.82;;
42384;SDS011;28042;43.986;22.860;2023-06-22T08:01:24;12.30;;;10.48;;
42384;SDS011;28042;43.986;22.860;2023-06-22T08:03:49;12.60;;;10.80;;
42384;SDS011;28042;43.986;22.860;2023-06-22T08:06:15;13.25;;;10.45;;
42384;SDS011;28042;43.986;22.860;2023-06-22T08:08:41;12.45;;;10.95;;
42384;SDS011;28042;43.986;22.860;2023-06-22T08:11:07;12.53;;;10.93;;
42384;SDS011;28042;43.986;22.860;2023-06-22T08:13:33;11.48;;;10.32;;
42384;SDS011;28042;43.986;22.860;2023-06-22T08:15:58;11.40;;;10.32;;
42384;SDS011;28042;43.986;22.860;2023-06-22T08:18:24;13.60;;;11.38;;
42384;SDS011;28042;43.986;22.860;2023-06-22T08:20:49;12.38;;;10.38;;
42384;SDS011;28042;43.986;22.860;2023-06-22T08:23:15;12.77;;;9.45;;
42384;SDS011;28042;43.986;22.860;2023-06-22T08:25:40;10.77;;;9.40;;
42384;SDS011;28042;43.986;22.860;2023-06-22T08:28:06;15.98;;;10.57;;
42384;SDS011;28042;43.986;22.860;2023-06-22T08:30:32;12.60;;;10.20;;
42384;SDS011;28042;43.986;22.860;2023-06-22T08:32:57;11.65;;;10.45;;
42384;SDS011;28042;43.986;22.860;2023-06-22T08:35:23;17.70;;;9.18;;
42384;SDS011;28042;43.986;22.860;2023-06-22T08:37:49;14.82;;;10.27;;
42384;SDS011;28042;43.986;22.860;2023-06-22T08:40:17;13.88;;;10.82;;
42384;SDS011;28042;43.986;22.860;2023-06-22T08:42:45;12.00;;;10.75;;
42384;SDS011;28042;43.986;22.860;2023-06-22T08:45:11;15.25;;;10.90;;
42384;SDS011;28042;43.986;22.860;2023-06-22T08:47:37;11.93;;;10.40;;
42384;SDS011;28042;43.986;22.860;2023-06-22T08:50:02;11.48;;;9.32;;
42384;SDS011;28042;43.986;22.860;2023-06-22T08:54:55;13.27;;;11.90;;
42384;SDS011;28042;43.986;22.860;2023-06-22T08:57:21;11.48;;;9.95;;
42384;SDS011;28042;43.986;22.860;2023-06-22T08:59:47;13.02;;;10.65;;
42384;SDS011;28042;43.986;22.860;2023-06-22T09:02:12;11.15;;;9.95;;
42384;SDS011;28042;43.986;22.860;2023-06-22T09:04:38;13.52;;;10.95;;
42384;SDS011;28042;43.986;22.860;2023-06-22T09:07:03;14.95;;;10.95;;
42384;SDS011;28042;43.986;22.860;2023-06-22T09:09:29;12.88;;;10.60;;
42384;SDS011;28042;43.986;22.860;2023-06-22T09:11:55;11.32;;;10.23;;
42384;SDS011;28042;43.986;22.860;2023-06-22T09:14:20;22.50;;;11.18;;
42384;SDS011;28042;43.986;22.860;2023-06-22T09:16:45;15.68;;;11.68;;
42384;SDS011;28042;43.986;22.860;2023-06-22T09:19:11;15.18;;;12.48;;
42384;SDS011;28042;43.986;22.860;2023-06-22T09:21:37;12.45;;;11.25;;
42384;SDS011;28042;43.986;22.860;2023-06-22T09:24:02;17.08;;;10.32;;
42384;SDS011;28042;43.986;22.860;2023-06-22T09:26:28;12.55;;;10.73;;
42384;SDS011;28042;43.986;22.860;2023-06-22T09:28:54;15.23;;;10.73;;
42384;SDS011;28042;43.986;22.860;2023-06-22T09:31:19;13.32;;;10.73;;
42384;SDS011;28042;43.986;22.860;2023-06-22T09:33:51;14.90;;;10.77;;
42384;SDS011;28042;43.986;22.860;2023-06-22T09:36:17;14.05;;;11.68;;
42384;SDS011;28042;43.986;22.860;2023-06-22T09:38:43;13.50;;;10.55;;
42384;SDS011;28042;43.986;22.860;2023-06-22T09:41:08;14.05;;;9.90;;
42384;SDS011;28042;43.986;22.860;2023-06-22T09:43:34;16.75;;;10.68;;
42384;SDS011;28042;43.986;22.860;2023-06-22T09:46:00;13.15;;;10.98;;
42384;SDS011;28042;43.986;22.860;2023-06-22T09:48:27;20.23;;;11.63;;
42384;SDS011;28042;43.986;22.860;2023-06-22T09:50:54;14.95;;;10.50;;
42384;SDS011;28042;43.986;22.860;2023-06-22T09:53:19;15.02;;;10.73;;
42384;SDS011;28042;43.986;22.860;2023-06-22T09:55:46;13.95;;;10.85;;
42384;SDS011;28042;43.986;22.860;2023-06-22T09:58:11;13.13;;;10.93;;
42384;SDS011;28042;43.986;22.860;2023-06-22T10:00:37;16.20;;;11.18;;
42384;SDS011;28042;43.986;22.860;2023-06-22T10:03:02;16.83;;;11.50;;
42384;SDS011;28042;43.986;22.860;2023-06-22T10:05:28;15.43;;;11.10;;
42384;SDS011;28042;43.986;22.860;2023-06-22T10:07:54;18.70;;;11.70;;
42384;SDS011;28042;43.986;22.860;2023-06-22T10:10:20;23.05;;;10.93;;
42384;SDS011;28042;43.986;22.860;2023-06-22T10:12:46;13.63;;;11.55;;
42384;SDS011;28042;43.986;22.860;2023-06-22T10:15:13;11.82;;;10.60;;
42384;SDS011;28042;43.986;22.860;2023-06-22T10:17:39;11.25;;;9.70;;
42384;SDS011;28042;43.986;22.860;2023-06-22T10:20:06;12.93;;;10.30;;
42384;SDS011;28042;43.986;22.860;2023-06-22T10:22:41;12.00;;;10.80;;
42384;SDS011;28042;43.986;22.860;2023-06-22T10:25:08;14.35;;;10.93;;
42384;SDS011;28042;43.986;22.860;2023-06-22T10:27:34;11.50;;;10.03;;
42384;SDS011;28042;43.986;22.860;2023-06-22T10:29:59;20.08;;;10.82;;
42384;SDS011;28042;43.986;22.860;2023-06-22T10:32:25;14.23;;;10.65;;
42384;SDS011;28042;43.986;22.860;2023-06-22T10:34:51;13.15;;;11.20;;
42384;SDS011;28042;43.986;22.860;2023-06-22T10:37:16;11.55;;;10.48;;
42384;SDS011;28042;43.986;22.860;2023-06-22T10:39:41;12.82;;;10.07;;
42384;SDS011;28042;43.986;22.860;2023-06-22T10:42:07;20.52;;;10.02;;
42384;SDS011;28042;43.986;22.860;2023-06-22T10:44:32;12.25;;;9.38;;
42384;SDS011;28042;43.986;22.860;2023-06-22T10:46:58;17.35;;;10.15;;
42384;SDS011;28042;43.986;22.860;2023-06-22T10:49:23;11.45;;;10.25;;
42384;SDS011;28042;43.986;22.860;2023-06-22T10:51:49;16.25;;;9.40;;
42384;SDS011;28042;43.986;22.860;2023-06-22T10:54:14;10.98;;;9.80;;
42384;SDS011;28042;43.986;22.860;2023-06-22T10:56:43;12.23;;;8.75;;
42384;SDS011;28042;43.986;22.860;2023-06-22T10:59:08;11.05;;;9.50;;
42384;SDS011;28042;43.986;22.860;2023-06-22T11:01:34;17.30;;;9.23;;
42384;SDS011;28042;43.986;22.860;2023-06-22T11:03:59;12.68;;;10.18;;
42384;SDS011;28042;43.986;22.860;2023-06-22T11:06:25;14.85;;;8.88;;
42384;SDS011;28042;43.986;22.860;2023-06-22T11:08:50;17.42;;;9.70;;
42384;SDS011;28042;43.986;22.860;2023-06-22T11:11:16;10.68;;;9.43;;
42384;SDS011;28042;43.986;22.860;2023-06-22T11:13:42;14.23;;;9.88;;
42384;SDS011;28042;43.986;22.860;2023-06-22T11:16:09;14.82;;;10.13;;
42384;SDS011;28042;43.986;22.860;2023-06-22T11:18:35;12.68;;;10.15;;
42384;SDS011;28042;43.986;22.860;2023-06-22T11:21:00;12.80;;;10.02;;
42384;SDS011;28042;43.986;22.860;2023-06-22T11:23:26;12.93;;;10.38;;
42384;SDS011;28042;43.986;22.860;2023-06-22T11:25:53;16.93;;;10.90;;
42384;SDS011;28042;43.986;22.860;2023-06-22T11:28:18;23.05;;;11.00;;
42384;SDS011;28042;43.986;22.860;2023-06-22T11:30:44;16.73;;;10.27;;
42384;SDS011;28042;43.986;22.860;2023-06-22T11:33:09;14.82;;;10.25;;
42384;SDS011;28042;43.986;22.860;2023-06-22T11:35:34;15.10;;;10.10;;
42384;SDS011;28042;43.986;22.860;2023-06-22T11:38:00;13.68;;;10.05;;
42384;SDS011;28042;43.986;22.860;2023-06-22T11:40:25;14.93;;;9.68;;
42384;SDS011;28042;43.986;22.860;2023-06-22T11:42:51;15.18;;;10.27;;
42384;SDS011;28042;43.986;22.860;2023-06-22T11:45:17;14.63;;;9.98;;
42384;SDS011;28042;43.986;22.860;2023-06-22T11:47:43;22.73;;;11.65;;
42384;SDS011;28042;43.986;22.860;2023-06-22T11:50:08;15.50;;;10.25;;
42384;SDS011;28042;43.986;22.860;2023-06-22T11:52:34;16.05;;;9.65;;
42384;SDS011;28042;43.986;22.860;2023-06-22T11:55:01;16.17;;;10.47;;
42384;SDS011;28042;43.986;22.860;2023-06-22T11:57:29;15.55;;;10.32;;
42384;SDS011;28042;43.986;22.860;2023-06-22T11:59:55;14.30;;;10.20;;
42384;SDS011;28042;43.986;22.860;2023-06-22T12:02:20;15.27;;;10.23;;
42384;SDS011;28042;43.986;22.860;2023-06-22T12:04:46;19.65;;;9.75;;
42384;SDS011;28042;43.986;22.860;2023-06-22T12:07:11;14.68;;;10.35;;
42384;SDS011;28042;43.986;22.860;2023-06-22T12:09:37;25.98;;;10.50;;
42384;SDS011;28042;43.986;22.860;2023-06-22T12:12:03;11.57;;;9.85;;
42384;SDS011;28042;43.986;22.860;2023-06-22T12:14:29;14.82;;;10.10;;
42384;SDS011;28042;43.986;22.860;2023-06-22T12:16:54;15.52;;;10.50;;
42384;SDS011;28042;43.986;22.860;2023-06-22T12:19:19;15.05;;;10.13;;
42384;SDS011;28042;43.986;22.860;2023-06-22T12:21:45;16.65;;;11.55;;
42384;SDS011;28042;43.986;22.860;2023-06-22T12:24:10;13.52;;;9.82;;
42384;SDS011;28042;43.986;22.860;2023-06-22T12:26:36;12.70;;;10.07;;
42384;SDS011;28042;43.986;22.860;2023-06-22T12:29:02;16.58;;;10.52;;
42384;SDS011;28042;43.986;22.860;2023-06-22T12:31:27;11.95;;;10.48;;
42384;SDS011;28042;43.986;22.860;2023-06-22T12:33:53;14.57;;;10.82;;
42384;SDS011;28042;43.986;22.860;2023-06-22T12:36:18;24.20;;;11.32;;
42384;SDS011;28042;43.986;22.860;2023-06-22T12:38:43;13.68;;;10.68;;
42384;SDS011;28042;43.986;22.860;2023-06-22T12:41:09;15.20;;;10.00;;
42384;SDS011;28042;43.986;22.860;2023-06-22T12:43:34;11.43;;;10.30;;
42384;SDS011;28042;43.986;22.860;2023-06-22T12:46:00;13.98;;;10.23;;
42384;SDS011;28042;43.986;22.860;2023-06-22T12:48:26;17.08;;;10.25;;
42384;SDS011;28042;43.986;22.860;2023-06-22T12:50:52;14.35;;;10.50;;
42384;SDS011;28042;43.986;22.860;2023-06-22T12:53:18;14.73;;;10.50;;
42384;SDS011;28042;43.986;22.860;2023-06-22T12:55:43;22.35;;;11.15;;
42384;SDS011;28042;43.986;22.860;2023-06-22T12:58:09;13.32;;;9.68;;
42384;SDS011;28042;43.986;22.860;2023-06-22T13:00:34;14.43;;;9.75;;
42384;SDS011;28042;43.986;22.860;2023-06-22T13:03:00;20.60;;;10.40;;
42384;SDS011;28042;43.986;22.860;2023-06-22T13:05:26;11.25;;;9.60;;
42384;SDS011;28042;43.986;22.860;2023-06-22T13:07:51;11.57;;;9.50;;
42384;SDS011;28042;43.986;22.860;2023-06-22T13:10:17;14.32;;;9.82;;
42384;SDS011;28042;43.986;22.860;2023-06-22T13:12:42;14.85;;;9.52;;
42384;SDS011;28042;43.986;22.860;2023-06-22T13:15:08;10.88;;;8.38;;
42384;SDS011;28042;43.986;22.860;2023-06-22T13:17:33;18.23;;;9.52;;
42384;SDS011;28042;43.986;22.860;2023-06-22T13:19:59;12.40;;;8.20;;
42384;SDS011;28042;43.986;22.860;2023-06-22T13:22:31;9.82;;;7.78;;
42384;SDS011;28042;43.986;22.860;2023-06-22T13:24:59;10.85;;;8.18;;
42384;SDS011;28042;43.986;22.860;2023-06-22T13:27:25;11.70;;;8.35;;
42384;SDS011;28042;43.986;22.860;2023-06-22T13:29:51;9.18;;;7.75;;
42384;SDS011;28042;43.986;22.860;2023-06-22T13:32:16;10.70;;;7.70;;
42384;SDS011;28042;43.986;22.860;2023-06-22T13:34:42;11.20;;;8.07;;
42384;SDS011;28042;43.986;22.860;2023-06-22T13:37:08;10.07;;;8.07;;
42384;SDS011;28042;43.986;22.860;2023-06-22T13:39:33;13.52;;;8.18;;
42384;SDS011;28042;43.986;22.860;2023-06-22T13:41:59;11.35;;;7.50;;
42384;SDS011;28042;43.986;22.860;2023-06-22T13:44:24;9.75;;;7.68;;
42384;SDS011;28042;43.986;22.860;2023-06-22T13:46:54;11.13;;;7.47;;
42384;SDS011;28042;43.986;22.860;2023-06-22T13:49:20;11.03;;;7.63;;
42384;SDS011;28042;43.986;22.860;2023-06-22T13:51:46;9.93;;;8.33;;
42384;SDS011;28042;43.986;22.860;2023-06-22T13:54:13;11.57;;;7.83;;
42384;SDS011;28042;43.986;22.860;2023-06-22T13:56:39;29.45;;;9.90;;
42384;SDS011;28042;43.986;22.860;2023-06-22T13:59:04;13.02;;;8.77;;
42384;SDS011;28042;43.986;22.860;2023-06-22T14:01:29;9.43;;;7.90;;
42384;SDS011;28042;43.986;22.860;2023-06-22T14:03:55;9.93;;;8.55;;
42384;SDS011;28042;43.986;22.860;2023-06-22T14:06:20;14.23;;;8.35;;
42384;SDS011;28042;43.986;22.860;2023-06-22T14:08:46;11.80;;;8.20;;
42384;SDS011;28042;43.986;22.860;2023-06-22T14:11:11;10.05;;;7.88;;
42384;SDS011;28042;43.986;22.860;2023-06-22T14:13:37;10.50;;;8.25;;